Time;durP1;ratioP1;P1;durP2;ratioP2;P2;SDS_P1;SDS_P2;PMS_P1;PMS_P2;Temp;Humidity;BMP_temperature;BMP_pressure;BME280_temperature;BME280_humidity;BME280_pressure;Samples;Min_cycle;Max_cycle;Signal;HPM_P1;HPM_P2
2021/08/31 00:00:49;;;;;;;13.25;10.13;;;14.00;99.90;;;;;;6148581;28;20110;-78
2021/08/31 00:03:50;;;;;;;14.80;10.93;;;14.00;99.90;;;;;;6149466;28;20086;-81
2021/08/31 00:06:50;;;;;;;11.10;9.93;;;14.00;99.90;;;;;;6154831;28;20058;-79
2021/08/31 00:09:51;;;;;;;13.70;11.35;;;14.20;99.90;;;;;;6157509;28;20024;-80
2021/08/31 00:12:51;;;;;;;12.10;9.95;;;14.00;99.90;;;;;;6132631;28;20030;-79
2021/08/31 00:15:52;;;;;;;11.77;10.13;;;14.00;99.90;;;;;;6147917;28;20536;-80
2021/08/31 00:18:52;;;;;;;13.85;10.63;;;13.90;99.90;;;;;;6147986;28;20027;-80
2021/08/31 00:21:53;;;;;;;12.68;11.32;;;13.90;99.90;;;;;;6147833;28;20038;-80
2021/08/31 00:24:54;;;;;;;14.32;10.73;;;13.90;99.90;;;;;;6147684;28;20047;-79
2021/08/31 00:27:54;;;;;;;12.70;9.80;;;13.80;99.90;;;;;;6147714;28;20027;-80
2021/08/31 00:30:55;;;;;;;12.98;8.50;;;13.90;99.90;;;;;;6164916;28;20023;-80
2021/08/31 00:33:55;;;;;;;9.57;8.57;;;13.70;99.90;;;;;;6170537;28;20393;-79
2021/08/31 00:36:56;;;;;;;9.63;8.52;;;13.70;99.90;;;;;;6135291;28;20102;-79
2021/08/31 00:39:56;;;;;;;11.20;9.10;;;13.70;99.90;;;;;;6170620;28;20058;-79
2021/08/31 00:42:57;;;;;;;11.77;9.50;;;13.70;99.90;;;;;;6165848;28;20034;-79
2021/08/31 00:45:58;;;;;;;10.05;8.45;;;13.60;99.90;;;;;;6147377;28;20370;-79
2021/08/31 00:48:58;;;;;;;9.48;8.32;;;13.50;99.90;;;;;;6131829;28;20109;-79
2021/08/31 00:52:00;;;;;;;11.35;8.23;;;13.50;99.90;;;;;;6147029;28;20027;-80
2021/08/31 00:55:01;;;;;;;9.15;8.25;;;13.30;99.90;;;;;;6147046;28;20034;-80
2021/08/31 00:58:02;;;;;;;8.40;7.40;;;13.30;99.90;;;;;;6152200;28;20038;-80
2021/08/31 01:01:02;;;;;;;9.40;7.57;;;13.40;99.90;;;;;;6170192;28;20488;-79
2021/08/31 01:04:04;;;;;;;11.88;8.68;;;13.30;99.90;;;;;;6137541;28;20070;-80
2021/08/31 01:07:05;;;;;;;9.45;8.30;;;13.20;99.90;;;;;;6171383;28;20031;-79
2021/08/31 01:10:05;;;;;;;10.82;8.52;;;13.20;99.90;;;;;;6154062;28;20034;-80
2021/08/31 01:13:07;;;;;;;12.13;8.68;;;;;;;;;;6169929;28;20466;-80
2021/08/31 01:16:07;;;;;;;10.88;9.30;;;13.10;99.90;;;;;;6169702;28;20066;-79
2021/08/31 01:19:08;;;;;;;12.90;9.02;;;;;;;;;;6137925;28;20030;-79
2021/08/31 01:22:10;;;;;;;11.07;9.40;;;13.20;99.90;;;;;;6162179;28;20027;-79
2021/08/31 01:25:11;;;;;;;12.00;8.70;;;13.30;99.90;;;;;;6146587;28;20039;-79
2021/08/31 01:28:16;;;;;;;11.38;8.98;;;13.10;99.90;;;;;;6146422;28;20050;-79
2021/08/31 01:31:17;;;;;;;10.30;8.63;;;13.20;99.90;;;;;;6167232;28;20057;-79
2021/08/31 01:34:18;;;;;;;9.82;8.15;;;;;;;;;;6169483;28;20062;-79
2021/08/31 01:37:19;;;;;;;11.45;8.52;;;13.20;99.90;;;;;;6168641;28;20051;-80
2021/08/31 01:40:19;;;;;;;9.75;8.52;;;13.20;99.90;;;;;;6136099;28;20034;-79
2021/08/31 01:43:26;;;;;;;13.65;9.77;;;13.10;99.90;;;;;;6147388;28;20393;-79
2021/08/31 01:46:27;;;;;;;11.30;9.35;;;13.00;99.90;;;;;;6130448;28;20465;-80
2021/08/31 01:49:27;;;;;;;11.93;9.05;;;13.00;99.90;;;;;;6151391;28;20027;-79
2021/08/31 01:52:28;;;;;;;16.17;10.48;;;12.90;99.90;;;;;;6151320;28;20039;-79
2021/08/31 01:55:28;;;;;;;12.30;10.60;;;13.00;99.90;;;;;;6153097;28;20350;-79
2021/08/31 01:58:29;;;;;;;15.02;10.75;;;12.90;99.90;;;;;;6116844;28;20128;-80
2021/08/31 02:01:30;;;;;;;15.18;11.43;;;12.90;99.90;;;;;;6130132;28;20030;-80
2021/08/31 02:04:32;;;;;;;14.38;11.10;;;12.80;99.90;;;;;;6129664;28;20622;-79
2021/08/31 02:07:32;;;;;;;14.93;10.75;;;12.90;99.90;;;;;;6130147;28;20031;-79
2021/08/31 02:10:33;;;;;;;13.88;10.43;;;12.80;99.90;;;;;;6152058;28;20547;-79
2021/08/31 02:13:34;;;;;;;11.30;9.68;;;12.90;99.90;;;;;;6168553;28;20038;-79
2021/08/31 02:16:36;;;;;;;13.43;10.55;;;12.90;99.90;;;;;;6160290;28;20123;-79
2021/08/31 02:19:36;;;;;;;15.18;10.32;;;13.00;99.90;;;;;;6140138;28;20031;-79
2021/08/31 02:22:38;;;;;;;12.45;10.10;;;12.80;99.90;;;;;;6152556;28;20089;-78
2021/08/31 02:25:38;;;;;;;11.85;10.45;;;12.80;99.90;;;;;;6156329;28;20043;-79
2021/08/31 02:28:39;;;;;;;9.90;8.63;;;12.70;99.90;;;;;;6145774;28;20366;-79
2021/08/31 02:31:39;;;;;;;13.38;9.85;;;12.70;99.90;;;;;;6164971;28;20034;-79
2021/08/31 02:34:40;;;;;;;10.52;9.50;;;12.70;99.90;;;;;;6135823;28;20034;-78
2021/08/31 02:37:41;;;;;;;11.73;9.65;;;12.70;99.90;;;;;;6161687;28;20062;-78
2021/08/31 02:40:41;;;;;;;12.73;11.18;;;13.10;99.90;;;;;;6169056;28;20047;-79
2021/08/31 02:43:42;;;;;;;13.13;10.57;;;12.80;99.90;;;;;;6169519;28;20045;-79
2021/08/31 02:46:42;;;;;;;11.30;10.10;;;12.80;99.90;;;;;;6169319;28;20373;-79
2021/08/31 02:49:43;;;;;;;10.35;9.15;;;12.80;99.90;;;;;;6168961;28;20030;-79
2021/08/31 02:52:46;;;;;;;10.77;8.93;;;12.80;99.90;;;;;;6130956;28;20466;-79
2021/08/31 02:55:47;;;;;;;10.23;8.65;;;13.00;99.90;;;;;;6145572;28;20094;-78
2021/08/31 02:58:47;;;;;;;12.95;9.07;;;12.90;99.90;;;;;;6113319;28;20027;-78
2021/08/31 03:02:09;;;;;;;12.93;9.02;;;12.90;99.90;;;;;;6146697;28;20074;-78
2021/08/31 03:05:10;;;;;;;14.25;10.70;;;12.90;99.90;;;;;;6146548;28;20058;-79
2021/08/31 03:08:10;;;;;;;11.70;8.68;;;12.90;99.90;;;;;;6129938;28;20102;-79
2021/08/31 03:11:11;;;;;;;11.00;8.77;;;13.10;99.90;;;;;;6146711;28;20028;-79
2021/08/31 03:14:11;;;;;;;10.63;8.25;;;13.00;99.90;;;;;;6151562;28;20433;-80
2021/08/31 03:17:13;;;;;;;10.02;9.02;;;;;;;;;;6167895;28;20082;-80
2021/08/31 03:20:13;;;;;;;11.40;9.65;;;13.10;99.90;;;;;;6168174;28;20069;-78
2021/08/31 03:23:14;;;;;;;12.38;10.43;;;13.10;99.90;;;;;;6169276;28;20042;-79
2021/08/31 03:26:14;;;;;;;14.77;11.95;;;13.10;99.90;;;;;;6172982;28;20074;-79
2021/08/31 03:29:15;;;;;;;11.55;10.15;;;13.00;99.90;;;;;;6172393;28;20050;-80
2021/08/31 03:32:15;;;;;;;12.38;11.02;;;13.10;99.90;;;;;;6156130;28;20050;-78
2021/08/31 03:35:17;;;;;;;13.50;11.40;;;13.10;99.90;;;;;;6172145;28;20030;-80
2021/08/31 03:38:18;;;;;;;16.88;12.13;;;13.10;99.90;;;;;;6138482;28;20055;-79
2021/08/31 03:41:18;;;;;;;15.15;12.20;;;13.30;99.90;;;;;;6133005;28;20038;-79
2021/08/31 03:44:19;;;;;;;14.30;11.18;;;13.10;99.90;;;;;;6163504;28;20126;-78
2021/08/31 03:47:19;;;;;;;13.88;10.75;;;13.10;99.90;;;;;;6173226;28;20034;-79
2021/08/31 03:50:20;;;;;;;12.48;10.23;;;13.10;99.90;;;;;;6155665;28;20026;-80
2021/08/31 03:53:21;;;;;;;15.52;11.07;;;13.10;99.90;;;;;;6144642;28;20643;-79
2021/08/31 03:56:21;;;;;;;14.55;11.90;;;13.80;99.90;;;;;;6150299;28;20561;-79
2021/08/31 03:59:22;;;;;;;13.60;11.60;;;13.10;99.90;;;;;;6150175;28;20034;-81
2021/08/31 04:02:23;;;;;;;11.13;9.93;;;13.20;99.90;;;;;;6148781;28;20033;-80
2021/08/31 04:05:23;;;;;;;12.65;10.05;;;13.20;99.90;;;;;;6160832;28;20039;-80
2021/08/31 04:08:24;;;;;;;9.40;8.13;;;13.20;99.90;;;;;;6149171;28;20402;-80
2021/08/31 04:11:24;;;;;;;9.93;8.75;;;13.20;99.90;;;;;;6131554;28;20035;-79
2021/08/31 04:14:25;;;;;;;9.43;8.45;;;13.10;99.90;;;;;;6148573;28;20041;-81
2021/08/31 04:17:25;;;;;;;9.43;8.45;;;13.20;99.90;;;;;;6148581;28;20474;-80
2021/08/31 04:20:26;;;;;;;9.50;8.48;;;;;;;;;;6149610;28;20035;-80
2021/08/31 04:23:27;;;;;;;12.77;8.25;;;13.10;99.90;;;;;;6148244;28;20106;-79
2021/08/31 04:26:28;;;;;;;9.70;8.70;;;13.10;99.90;;;;;;6149398;28;20078;-80
2021/08/31 04:29:28;;;;;;;11.48;8.63;;;13.00;99.90;;;;;;6132152;28;20027;-79
2021/08/31 04:32:29;;;;;;;9.52;8.52;;;13.00;99.90;;;;;;6135053;28;20043;-80
2021/08/31 04:35:29;;;;;;;10.05;9.02;;;13.10;99.90;;;;;;6169445;28;20085;-79
2021/08/31 04:38:30;;;;;;;11.20;9.25;;;13.00;99.90;;;;;;6178639;28;20452;-80
2021/08/31 04:41:31;;;;;;;11.57;10.30;;;13.10;99.90;;;;;;6196360;28;20457;-79
2021/08/31 04:44:33;;;;;;;11.02;9.55;;;13.20;99.90;;;;;;6196342;28;20400;-79
2021/08/31 04:47:34;;;;;;;;;;;12.90;99.90;;;;;;6179429;28;20033;-80
2021/08/31 04:50:34;;;;;;;11.45;9.60;;;13.00;99.90;;;;;;6194891;28;20312;-79
2021/08/31 04:53:35;;;;;;;8.73;7.82;;;13.00;99.90;;;;;;6178770;28;20139;-79
2021/08/31 04:56:35;;;;;;;8.88;7.97;;;12.70;99.90;;;;;;6178394;28;20097;-79
2021/08/31 04:59:36;;;;;;;10.05;9.02;;;12.90;99.90;;;;;;6196187;28;20027;-79
2021/08/31 05:02:36;;;;;;;10.18;8.95;;;13.10;99.90;;;;;;6195407;28;20030;-80
2021/08/31 05:05:37;;;;;;;10.30;9.18;;;12.70;99.90;;;;;;6162215;28;20045;-81
2021/08/31 05:08:38;;;;;;;11.68;9.10;;;;;;;;;;6196070;28;20751;-80
2021/08/31 05:11:39;;;;;;;9.13;8.23;;;;;;;;;;6194653;28;20084;-80
2021/08/31 05:14:40;;;;;;;9.75;8.52;;;;;;;;;;6194958;28;20026;-79
2021/08/31 05:17:41;;;;;;;10.05;7.50;;;13.00;99.90;;;;;;6177908;28;20072;-82
2021/08/31 05:20:42;;;;;;;9.18;7.88;;;;;;;;;;6161612;28;20456;-79
2021/08/31 05:23:43;;;;;;;10.35;8.40;;;;;;;;;;6195257;28;20042;-80
2021/08/31 05:26:43;;;;;;;12.00;10.15;;;13.10;99.90;;;;;;6177677;28;20025;-82
2021/08/31 05:29:44;;;;;;;46.70;34.20;;;13.10;99.90;;;;;;6161509;28;20129;-80
2021/08/31 05:32:45;;;;;;;18.95;15.32;;;;;;;;;;6177211;28;20494;-81
2021/08/31 05:35:45;;;;;;;9.90;7.95;;;14.30;99.90;;;;;;6175475;28;20468;-83
2021/08/31 05:38:46;;;;;;;9.60;7.50;;;14.20;99.90;;;;;;6161045;28;20042;-83
2021/08/31 05:41:47;;;;;;;9.32;7.55;;;14.70;99.90;;;;;;6195079;28;20034;-81
2021/08/31 05:44:47;;;;;;;8.35;7.47;;;14.90;99.90;;;;;;6160746;28;20050;-80
2021/08/31 05:47:48;;;;;;;13.15;7.65;;;;;;;;;;6160612;28;20037;-79
2021/08/31 05:50:49;;;;;;;9.20;7.95;;;14.70;99.90;;;;;;6176608;28;20045;-79
2021/08/31 05:53:49;;;;;;;10.30;8.48;;;14.40;99.90;;;;;;6143037;28;20460;-79
2021/08/31 05:56:50;;;;;;;8.88;7.55;;;14.30;99.90;;;;;;6175841;28;20038;-79
2021/08/31 05:59:50;;;;;;;8.95;7.13;;;14.20;99.90;;;;;;6193066;28;20105;-81
2021/08/31 06:02:51;;;;;;;8.02;7.22;;;14.10;99.90;;;;;;6193300;28;20472;-80
2021/08/31 06:05:53;;;;;;;8.23;7.43;;;14.10;99.90;;;;;;6158934;28;20054;-82
2021/08/31 06:08:53;;;;;;;8.50;6.95;;;14.10;99.90;;;;;;6175933;28;20464;-80
2021/08/31 06:11:55;;;;;;;7.70;6.90;;;14.10;99.90;;;;;;6175609;28;20034;-79
2021/08/31 06:14:56;;;;;;;8.55;7.65;;;14.00;99.90;;;;;;6160931;28;20503;-77
2021/08/31 06:17:57;;;;;;;8.45;7.65;;;16.60;99.90;;;;;;6160695;28;20026;-80
2021/08/31 06:20:57;;;;;;;9.50;7.45;;;14.00;99.90;;;;;;6143713;28;20381;-79
2021/08/31 06:23:59;;;;;;;7.78;6.80;;;14.10;99.90;;;;;;6176719;28;20133;-78
2021/08/31 06:27:00;;;;;;;9.25;7.65;;;14.00;99.90;;;;;;6176652;28;20031;-79
2021/08/31 06:30:00;;;;;;;8.10;7.30;;;13.70;99.90;;;;;;6161362;28;20042;-78
2021/08/31 06:33:01;;;;;;;8.38;7.57;;;14.00;99.90;;;;;;6176254;28;20463;-77
2021/08/31 06:36:02;;;;;;;8.57;7.68;;;13.90;99.90;;;;;;6160509;28;20073;-78
2021/08/31 06:39:02;;;;;;;7.90;7.13;;;14.10;99.90;;;;;;6177382;28;20027;-78
2021/08/31 06:42:03;;;;;;;13.68;12.50;;;14.10;99.90;;;;;;6177556;28;20381;-80
2021/08/31 06:45:10;;;;;;;11.57;10.15;;;14.00;99.90;;;;;;6194593;28;20113;-79
2021/08/31 06:48:11;;;;;;;9.27;7.53;;;14.20;99.90;;;;;;6194591;28;20030;-80
2021/08/31 06:52:02;;;;;;;8.85;7.95;;;14.20;99.90;;;;;;6194803;28;20034;-79
2021/08/31 06:55:02;;;;;;;11.05;7.65;;;14.20;99.90;;;;;;6194531;28;20062;-79
2021/08/31 06:58:06;;;;;;;14.13;8.40;;;14.30;99.90;;;;;;6197647;28;20408;-78
2021/08/31 07:05:17;;;;;;;8.02;7.15;;;;;;;;;;6076420;29;20048;-79
2021/08/31 07:08:18;;;;;;;8.02;7.22;;;14.60;99.90;;;;;;6076320;29;20048;-80
2021/08/31 07:11:19;;;;;;;8.73;7.82;;;14.80;99.90;;;;;;6045096;29;20450;-78
2021/08/31 07:14:20;;;;;;;7.55;6.85;;;;;;;;;;6075943;29;20041;-79
2021/08/31 07:21:17;;;;;;;9.02;7.75;;;14.80;99.90;;;;;;6076043;29;20036;-77
2021/08/31 07:25:13;;;;;;;8.65;7.72;;;14.70;99.90;;;;;;6060454;29;20083;-78
2021/08/31 07:28:29;;;;;;;9.38;8.40;;;15.00;99.90;;;;;;6075501;29;20161;-77
2021/08/31 07:31:35;;;;;;;8.55;7.65;;;14.80;99.90;;;;;;6075257;29;20395;-77
2021/08/31 07:34:38;;;;;;;8.68;7.80;;;15.10;99.90;;;;;;6056686;29;20862;-78
2021/08/31 07:37:39;;;;;;;8.50;7.32;;;15.10;99.90;;;;;;6074937;29;20068;-78
2021/08/31 07:40:48;;;;;;;8.27;7.47;;;15.50;99.90;;;;;;6121023;29;20039;-79
2021/08/31 07:43:50;;;;;;;9.35;8.32;;;16.40;99.90;;;;;;6148258;29;20129;-77
2021/08/31 07:46:51;;;;;;;8.90;7.85;;;15.50;99.90;;;;;;6148376;29;20019;-76
2021/08/31 07:49:51;;;;;;;9.38;8.15;;;15.60;99.90;;;;;;6149330;28;20034;-77
2021/08/31 07:52:52;;;;;;;9.10;8.15;;;15.70;99.90;;;;;;6132007;29;20402;-77
2021/08/31 07:55:52;;;;;;;7.47;6.68;;;16.00;99.90;;;;;;6149176;28;20472;-78
2021/08/31 07:58:53;;;;;;;10.52;7.22;;;15.80;99.90;;;;;;6131581;29;20040;-77
2021/08/31 08:01:54;;;;;;;8.23;7.25;;;15.80;99.90;;;;;;6147870;29;20027;-77
2021/08/31 08:04:58;;;;;;;11.52;8.52;;;16.10;99.90;;;;;;6147634;28;20497;-77
2021/08/31 08:07:59;;;;;;;13.55;10.18;;;16.00;99.90;;;;;;6147209;28;20436;-78
2021/08/31 08:11:00;;;;;;;16.38;12.77;;;16.30;99.90;;;;;;6148757;29;20089;-78
2021/08/31 08:14:00;;;;;;;12.45;10.13;;;16.40;99.90;;;;;;6115939;29;20034;-78
2021/08/31 08:17:01;;;;;;;12.65;10.57;;;16.60;99.90;;;;;;6147355;29;20078;-78
2021/08/31 08:20:02;;;;;;;13.25;10.27;;;17.00;99.90;;;;;;6146467;28;20031;-80
2021/08/31 08:23:02;;;;;;;11.77;9.15;;;16.90;99.90;;;;;;6131569;29;20023;-76
2021/08/31 08:26:03;;;;;;;10.18;9.10;;;17.20;99.90;;;;;;6115390;29;20043;-79
2021/08/31 08:29:04;;;;;;;10.40;9.13;;;;;;;;;;6148574;29;20103;-78
2021/08/31 08:32:09;;;;;;;11.05;9.75;;;17.20;99.90;;;;;;6148723;29;20031;-78
2021/08/31 08:35:12;;;;;;;12.48;9.68;;;17.20;99.90;;;;;;6148440;29;20023;-78
2021/08/31 08:38:12;;;;;;;9.35;8.32;;;17.00;99.90;;;;;;6168056;28;20537;-79
2021/08/31 08:41:13;;;;;;;11.10;9.77;;;17.10;99.90;;;;;;6171211;28;20088;-79
2021/08/31 08:44:13;;;;;;;10.80;9.70;;;17.00;99.90;;;;;;6167608;28;20158;-78
2021/08/31 08:47:14;;;;;;;12.13;10.23;;;17.10;99.90;;;;;;6131144;28;20031;-77
2021/08/31 08:50:15;;;;;;;11.50;10.30;;;16.90;99.90;;;;;;6131561;28;20030;-78
2021/08/31 08:53:16;;;;;;;15.15;12.55;;;17.00;99.90;;;;;;6130878;28;20023;-78
2021/08/31 08:56:17;;;;;;;13.13;11.73;;;17.00;99.90;;;;;;6130791;28;20820;-79
2021/08/31 08:59:18;;;;;;;43.30;30.15;;;17.20;99.90;;;;;;6146908;28;20106;-78
2021/08/31 09:02:33;;;;;;;47.60;35.85;;;17.40;99.90;;;;;;6130843;28;20339;-80
2021/08/31 09:05:34;;;;;;;19.58;15.55;;;18.00;99.90;;;;;;6163675;28;20062;-78
2021/08/31 09:08:35;;;;;;;13.13;11.52;;;18.00;99.90;;;;;;6164731;28;20026;-79
2021/08/31 09:11:40;;;;;;;12.75;10.48;;;18.20;99.90;;;;;;6142240;28;20042;-81
2021/08/31 09:14:41;;;;;;;12.23;11.00;;;18.10;99.90;;;;;;6159983;28;20038;-78
2021/08/31 09:18:16;;;;;;;15.98;10.95;;;17.70;99.90;;;;;;6115037;28;20446;-77
2021/08/31 09:21:21;;;;;;;12.20;10.93;;;18.00;99.90;;;;;;6131436;28;20050;-77
2021/08/31 09:24:21;;;;;;;10.65;9.65;;;16.90;99.90;;;;;;6112349;28;20130;-77
2021/08/31 09:27:36;;;;;;;11.25;10.07;;;18.10;99.90;;;;;;6121200;28;20031;-80
2021/08/31 09:30:36;;;;;;;11.07;9.38;;;17.80;99.90;;;;;;6141705;28;20038;-78
2021/08/31 09:33:41;;;;;;;11.45;9.38;;;18.30;99.90;;;;;;6143108;28;20508;-79
2021/08/31 09:36:42;;;;;;;12.75;9.10;;;;;;;;;;6143166;28;20462;-78
2021/08/31 09:39:43;;;;;;;10.75;9.63;;;;;;;;;;6146857;28;20039;-78
2021/08/31 09:43:12;;;;;;;11.38;9.90;;;18.50;99.90;;;;;;6128078;28;20035;-78
2021/08/31 09:46:13;;;;;;;10.38;9.35;;;18.90;99.90;;;;;;6117122;28;20032;-78
2021/08/31 09:49:18;;;;;;;10.60;9.10;;;18.90;99.90;;;;;;6166996;28;20126;-78
2021/08/31 09:52:18;;;;;;;9.30;8.40;;;19.30;99.90;;;;;;6150829;28;20125;-78
2021/08/31 09:55:20;;;;;;;8.88;7.90;;;19.70;99.90;;;;;;6150568;28;20488;-79
2021/08/31 09:58:24;;;;;;;9.40;8.18;;;19.60;99.90;;;;;;6146772;28;20047;-79
2021/08/31 10:01:25;;;;;;;11.50;8.30;;;19.90;99.90;;;;;;6133565;28;20118;-78
2021/08/31 10:04:25;;;;;;;8.60;7.78;;;19.80;99.90;;;;;;6146235;28;20070;-78
2021/08/31 10:07:26;;;;;;;9.10;8.20;;;20.30;99.90;;;;;;6129316;28;20035;-78
2021/08/31 10:10:27;;;;;;;8.98;8.07;;;20.80;99.90;;;;;;6168976;28;20476;-79
2021/08/31 10:13:28;;;;;;;10.97;8.20;;;21.40;99.90;;;;;;6152836;28;20031;-80
2021/08/31 10:16:28;;;;;;;7.78;6.97;;;21.80;99.90;;;;;;6168213;28;20042;-80
2021/08/31 10:19:29;;;;;;;9.32;7.90;;;21.90;99.90;;;;;;6123260;28;20089;-80
2021/08/31 10:22:30;;;;;;;8.82;7.93;;;22.00;99.90;;;;;;6133509;28;20035;-81
2021/08/31 10:25:30;;;;;;;8.77;6.20;;;22.20;99.90;;;;;;6154521;28;20068;-80
2021/08/31 10:28:31;;;;;;;7.47;6.78;;;23.00;99.90;;;;;;6145245;28;20028;-81
2021/08/31 10:31:31;;;;;;;8.27;7.05;;;23.70;99.90;;;;;;6167247;28;20037;-82
2021/08/31 10:34:37;;;;;;;7.80;7.00;;;24.50;99.90;;;;;;6155954;28;20043;-80
2021/08/31 10:37:47;;;;;;;7.85;6.70;;;25.10;99.90;;;;;;6185505;28;20456;-81
2021/08/31 10:40:48;;;;;;;8.65;7.35;;;25.30;99.10;;;;;;6165797;28;20034;-81
2021/08/31 10:43:52;;;;;;;7.20;6.45;;;24.70;98.10;;;;;;6181401;28;20049;-80
2021/08/31 10:46:56;;;;;;;8.80;7.90;;;23.70;99.00;;;;;;6181184;28;20649;-86
2021/08/31 10:49:57;;;;;;;8.20;7.40;;;22.90;99.90;;;;;;6198265;28;20026;-81
2021/08/31 10:53:03;;;;;;;7.93;6.90;;;22.30;99.90;;;;;;6197736;28;20412;-80
2021/08/31 10:56:29;;;;;;;11.00;8.00;;;21.20;99.90;;;;;;6164509;28;20933;-80
2021/08/31 10:59:33;;;;;;;9.25;7.85;;;21.10;99.90;;;;;;6181076;28;20452;-80
2021/08/31 11:02:46;;;;;;;9.73;7.53;;;20.70;99.90;;;;;;6165012;28;20412;-81
2021/08/31 11:05:47;;;;;;;8.60;7.60;;;20.50;99.90;;;;;;6180321;28;20034;-81
2021/08/31 11:09:20;;;;;;;8.77;7.97;;;20.30;99.90;;;;;;6180449;28;20061;-80
2021/08/31 11:12:21;;;;;;;9.07;8.20;;;20.20;99.90;;;;;;6099905;29;20032;-81
2021/08/31 11:15:22;;;;;;;8.85;7.97;;;20.00;99.90;;;;;;6082419;29;20040;-80
2021/08/31 11:18:23;;;;;;;8.57;7.70;;;20.00;99.90;;;;;;6083427;29;20051;-84
2021/08/31 11:21:23;;;;;;;8.80;7.88;;;20.00;99.90;;;;;;6083531;29;20047;-82
2021/08/31 11:24:24;;;;;;;10.38;9.18;;;20.00;99.90;;;;;;6099180;29;20044;-82
2021/08/31 11:27:27;;;;;;;9.65;8.65;;;19.80;99.90;;;;;;6083430;29;20089;-81
2021/08/31 11:30:28;;;;;;;10.32;8.95;;;19.60;99.90;;;;;;6082438;29;20524;-83
2021/08/31 11:33:39;;;;;;;11.07;9.10;;;19.60;99.90;;;;;;6066540;29;20028;-84
2021/08/31 11:36:41;;;;;;;10.68;9.68;;;19.60;99.90;;;;;;6081399;29;20083;-82
2021/08/31 11:39:42;;;;;;;12.23;9.55;;;19.30;99.90;;;;;;6082609;29;20063;-82
2021/08/31 11:42:53;;;;;;;10.32;8.73;;;19.30;99.90;;;;;;6082776;29;20020;-83
2021/08/31 11:45:55;;;;;;;9.05;8.15;;;;;;;;;;6082453;29;20211;-79
2021/08/31 11:49:13;;;;;;;13.07;9.57;;;19.20;99.90;;;;;;6172220;28;20038;-80
2021/08/31 11:52:15;;;;;;;9.00;8.10;;;19.10;99.90;;;;;;6196498;28;20274;-79
2021/08/31 11:55:26;;;;;;;9.15;8.25;;;19.20;99.90;;;;;;6164407;28;20456;-79
2021/08/31 11:58:27;;;;;;;10.50;8.85;;;19.40;99.90;;;;;;6198183;28;20492;-79
2021/08/31 12:01:29;;;;;;;10.43;8.00;;;19.20;99.90;;;;;;6147856;28;20027;-78
2021/08/31 12:04:30;;;;;;;9.30;8.32;;;19.50;99.90;;;;;;6162655;28;20129;-79
2021/08/31 12:07:38;;;;;;;8.40;7.60;;;19.30;99.90;;;;;;6147171;28;20132;-80
2021/08/31 12:10:39;;;;;;;10.05;8.55;;;19.40;99.90;;;;;;6164114;28;20038;-79
2021/08/31 12:13:43;;;;;;;9.00;8.10;;;19.40;99.90;;;;;;6163093;28;20108;-80
2021/08/31 12:16:44;;;;;;;9.82;7.72;;;19.60;99.90;;;;;;6178810;28;20153;-81
2021/08/31 12:19:47;;;;;;;9.15;8.35;;;19.60;99.90;;;;;;6177473;28;20037;-79
2021/08/31 12:22:49;;;;;;;10.00;9.00;;;19.70;99.90;;;;;;6163244;28;20105;-78
2021/08/31 12:26:02;;;;;;;8.73;7.93;;;19.70;99.90;;;;;;6164389;28;20038;-82
2021/08/31 12:29:08;;;;;;;9.48;8.23;;;19.80;99.90;;;;;;6195059;28;20015;-80
2021/08/31 12:32:09;;;;;;;10.35;7.97;;;19.90;99.90;;;;;;6146883;28;20372;-80
2021/08/31 12:35:25;;;;;;;8.68;7.78;;;19.80;99.90;;;;;;6162133;28;20039;-87
2021/08/31 12:38:26;;;;;;;8.25;7.38;;;19.70;99.90;;;;;;6185480;28;20054;-81
2021/08/31 12:41:36;;;;;;;9.40;8.07;;;19.70;99.90;;;;;;6136768;28;20019;-80
2021/08/31 12:44:37;;;;;;;9.15;8.10;;;19.60;99.90;;;;;;6135640;28;20046;-81
2021/08/31 12:47:40;;;;;;;9.85;8.10;;;19.50;99.90;;;;;;6131687;28;20050;-83
2021/08/31 12:50:54;;;;;;;8.60;7.80;;;19.40;99.90;;;;;;6144466;28;20034;-80
2021/08/31 12:53:56;;;;;;;9.85;8.07;;;19.30;99.90;;;;;;6145481;28;20042;-80
2021/08/31 12:57:01;;;;;;;10.18;8.27;;;19.20;99.90;;;;;;6135550;28;20038;-81
2021/08/31 13:00:01;;;;;;;9.32;8.13;;;19.10;99.90;;;;;;6146649;28;20117;-82
2021/08/31 13:03:02;;;;;;;8.95;7.38;;;19.10;99.90;;;;;;6154024;28;20490;-80
2021/08/31 13:06:04;;;;;;;9.38;8.35;;;19.00;99.90;;;;;;6137295;28;20073;-84
2021/08/31 13:09:06;;;;;;;8.90;8.00;;;19.00;99.90;;;;;;6141556;28;20053;-81
2021/08/31 13:12:08;;;;;;;8.82;7.93;;;19.00;99.90;;;;;;6153856;28;20117;-80
2021/08/31 13:15:10;;;;;;;10.23;7.95;;;19.00;99.90;;;;;;6130523;28;20039;-84
2021/08/31 13:18:10;;;;;;;9.33;8.23;;;18.90;99.90;;;;;;6130892;28;20043;-80
2021/08/31 13:21:11;;;;;;;9.32;8.40;;;19.00;99.90;;;;;;6157709;28;20480;-84
2021/08/31 13:24:11;;;;;;;9.40;8.05;;;19.00;99.90;;;;;;6153485;28;20424;-84
2021/08/31 13:27:13;;;;;;;8.38;7.47;;;19.00;99.90;;;;;;6144396;28;20023;-82
2021/08/31 13:30:14;;;;;;;9.05;8.05;;;19.60;99.90;;;;;;6114959;28;20035;-80
2021/08/31 13:33:18;;;;;;;9.20;8.23;;;19.00;99.90;;;;;;6130672;28;20370;-81
2021/08/31 13:36:19;;;;;;;10.32;8.70;;;18.60;99.90;;;;;;6143751;28;20137;-80
2021/08/31 13:39:20;;;;;;;10.95;8.95;;;19.10;99.90;;;;;;6161364;28;20080;-80
2021/08/31 13:42:20;;;;;;;11.00;9.02;;;18.90;99.90;;;;;;6177372;28;20121;-80
2021/08/31 13:45:21;;;;;;;9.55;7.95;;;18.60;99.90;;;;;;6145103;28;20089;-80
2021/08/31 13:48:22;;;;;;;9.90;7.88;;;18.70;99.90;;;;;;6176999;28;20081;-80
2021/08/31 13:51:22;;;;;;;10.05;8.90;;;18.50;99.90;;;;;;6177560;28;20042;-80
2021/08/31 13:54:23;;;;;;;12.15;10.38;;;18.20;99.90;;;;;;6161195;28;20032;-81
2021/08/31 13:57:29;;;;;;;10.00;8.07;;;18.30;99.90;;;;;;6194429;28;20038;-82
2021/08/31 14:00:30;;;;;;;12.68;8.98;;;18.40;99.90;;;;;;6146985;28;20022;-81
2021/08/31 14:03:30;;;;;;;10.50;9.48;;;;;;;;;;6176861;28;20424;-82
2021/08/31 14:06:31;;;;;;;9.73;8.60;;;18.20;99.90;;;;;;6176683;28;20022;-83
2021/08/31 14:09:32;;;;;;;9.68;8.70;;;18.30;99.90;;;;;;6144976;28;20033;-80
2021/08/31 14:12:32;;;;;;;11.40;8.05;;;18.10;99.90;;;;;;6160677;28;20026;-83
2021/08/31 14:15:34;;;;;;;8.57;7.47;;;18.60;99.90;;;;;;6176645;28;20030;-81
2021/08/31 14:18:34;;;;;;;8.43;7.60;;;18.30;99.90;;;;;;6161094;28;20030;-81
2021/08/31 14:21:37;;;;;;;9.82;8.40;;;;;;;;;;6176569;28;20037;-80
2021/08/31 14:24:38;;;;;;;8.90;7.82;;;;;;;;;;6194432;28;20130;-81
2021/08/31 14:27:39;;;;;;;8.57;7.72;;;;;;;;;;6177022;28;20388;-80
2021/08/31 14:30:40;;;;;;;10.32;8.40;;;;;;;;;;6176865;28;20314;-81
2021/08/31 14:33:40;;;;;;;10.88;8.48;;;18.40;99.90;;;;;;6194181;28;20093;-80
2021/08/31 14:36:41;;;;;;;8.23;7.43;;;;;;;;;;6176037;28;20108;-82
2021/08/31 14:39:44;;;;;;;9.40;8.32;;;18.40;99.90;;;;;;6194243;28;20069;-81
2021/08/31 14:42:45;;;;;;;;;;;18.70;99.90;;;;;;6161219;28;20026;-81
2021/08/31 14:45:46;;;;;;;9.13;6.95;;;;;;;;;;6176681;28;19909;-80
2021/08/31 14:48:47;;;;;;;7.38;6.50;;;;;;;;;;6176579;28;20412;-81
2021/08/31 14:51:47;;;;;;;9.57;8.23;;;18.50;99.90;;;;;;6176754;28;20019;-80
2021/08/31 14:54:48;;;;;;;10.00;8.35;;;18.10;99.90;;;;;;6144681;28;20152;-81
2021/08/31 14:57:49;;;;;;;7.82;7.10;;;18.20;99.90;;;;;;6176130;28;20061;-80
2021/08/31 15:00:49;;;;;;;8.15;7.38;;;18.20;99.90;;;;;;6168628;28;20035;-80
2021/08/31 15:03:50;;;;;;;7.38;6.57;;;18.30;99.90;;;;;;6160387;28;20484;-81
2021/08/31 15:06:50;;;;;;;8.85;7.82;;;18.10;99.90;;;;;;6160626;28;20033;-80
2021/08/31 15:09:51;;;;;;;8.43;7.57;;;18.50;99.90;;;;;;6159885;28;20072;-80
2021/08/31 15:12:51;;;;;;;8.18;7.38;;;18.90;99.90;;;;;;6176220;28;20028;-80
2021/08/31 15:15:52;;;;;;;8.45;7.57;;;19.00;99.90;;;;;;6175965;28;20113;-83
2021/08/31 15:18:58;;;;;;;7.78;6.97;;;19.20;99.90;;;;;;6179217;28;20113;-81
2021/08/31 15:21:58;;;;;;;9.88;7.00;;;19.40;99.90;;;;;;6164303;28;21002;-83
2021/08/31 15:24:59;;;;;;;7.93;6.93;;;;;;;;;;6148054;28;20136;-80
2021/08/31 15:28:00;;;;;;;7.68;6.72;;;20.20;99.90;;;;;;6180506;28;20102;-80
2021/08/31 15:31:00;;;;;;;7.35;6.65;;;19.80;99.90;;;;;;6148138;28;20026;-81
2021/08/31 15:34:01;;;;;;;8.52;7.63;;;19.90;99.90;;;;;;6164251;28;20616;-81
2021/08/31 15:37:02;;;;;;;8.02;7.22;;;20.00;99.90;;;;;;6163726;28;20412;-81
2021/08/31 15:40:03;;;;;;;8.70;7.45;;;20.00;99.90;;;;;;6163907;28;20037;-81
2021/08/31 15:43:04;;;;;;;8.27;7.38;;;20.10;99.90;;;;;;6180102;28;20035;-80
2021/08/31 15:46:04;;;;;;;7.47;6.75;;;20.10;99.90;;;;;;6164241;28;20441;-83
2021/08/31 15:49:05;;;;;;;9.02;6.88;;;20.00;99.90;;;;;;6180201;28;20026;-80
2021/08/31 15:52:06;;;;;;;9.25;7.65;;;19.80;99.90;;;;;;6147774;28;20034;-80
2021/08/31 15:55:07;;;;;;;8.45;7.07;;;19.60;99.90;;;;;;6179906;28;20022;-80
2021/08/31 15:58:08;;;;;;;8.55;7.15;;;19.40;99.90;;;;;;6163824;28;20068;-80